Disclaimer

Please do not use the information listed here in-flight or in-navigation, as they are not provided to us by the airports but are provided by volunteers, so they might be outdated.

Search


Regions


Airport information page

Radio informations:
ACC - 127.55 MHz

Airport informations:
Latitude: 12° 57' 40.56" N
Longitude: 074° 53' 24.25" E
Elevation: 337 feet - 103 meters
Operating hours: N/A
Operating agency: Civil government, landing fees and diplomatic clearance may be required
Timezone: UTC+5:30
Fuel: Jet A1, without icing nhibitor.

100/130 octane gasoline, leaded, MIL-L-5572F (GREEN)

Runway information:
09/27 - 5300 x 150 feet< - >1615 x 46 meters

Recent METARs:
VOML 211030Z 25008KT 8000 FEW015 31/23 Q1008 NOSIG
VOML 211100Z 26008KT 8000 FEW015 31/23 Q1008 NOSIG
VOML 211130Z 26008KT 8000 FEW015 31/23 Q1009 NOSIG

Airport on the map: